sensor_id;sensor_type;location;lat;lon;timestamp;pressure;altitude;pressure_sealevel;temperature;humidity
19596;BME280;9945;46.010;8.946;2023-04-24T00:00:37;96410.16;;;13.92;89.20
19596;BME280;9945;46.010;8.946;2023-04-24T00:03:06;96410.59;;;14.17;88.76
19596;BME280;9945;46.010;8.946;2023-04-24T00:05:33;96408.28;;;14.08;89.67
19596;BME280;9945;46.010;8.946;2023-04-24T00:08:01;96403.09;;;13.93;92.90
19596;BME280;9945;46.010;8.946;2023-04-24T00:10:28;96388.53;;;14.18;92.68
19596;BME280;9945;46.010;8.946;2023-04-24T00:12:55;96364.19;;;14.16;94.61
19596;BME280;9945;46.010;8.946;2023-04-24T00:15:22;96374.31;;;13.91;96.10
19596;BME280;9945;46.010;8.946;2023-04-24T00:17:49;96393.06;;;13.82;96.76
19596;BME280;9945;46.010;8.946;2023-04-24T00:20:17;96388.16;;;13.79;98.01
19596;BME280;9945;46.010;8.946;2023-04-24T00:22:44;96388.16;;;13.79;95.44
19596;BME280;9945;46.010;8.946;2023-04-24T00:25:12;96389.94;;;13.93;92.43
19596;BME280;9945;46.010;8.946;2023-04-24T00:27:39;96395.38;;;13.91;91.53
19596;BME280;9945;46.010;8.946;2023-04-24T00:30:07;96393.75;;;13.90;90.65
19596;BME280;9945;46.010;8.946;2023-04-24T00:32:34;96396.06;;;14.00;91.86
19596;BME280;9945;46.010;8.946;2023-04-24T00:35:01;96395.88;;;14.01;91.26
19596;BME280;9945;46.010;8.946;2023-04-24T00:37:28;96384.22;;;13.89;91.79
19596;BME280;9945;46.010;8.946;2023-04-24T00:39:55;96379.16;;;13.67;94.00
19596;BME280;9945;46.010;8.946;2023-04-24T00:42:23;96373.63;;;13.61;90.78
19596;BME280;9945;46.010;8.946;2023-04-24T00:44:50;96370.88;;;13.70;89.67
19596;BME280;9945;46.010;8.946;2023-04-24T00:47:18;96374.66;;;13.60;90.53
19596;BME280;9945;46.010;8.946;2023-04-24T00:49:47;96362.50;;;13.81;91.31
19596;BME280;9945;46.010;8.946;2023-04-24T00:52:14;96359.03;;;13.80;91.00
19596;BME280;9945;46.010;8.946;2023-04-24T00:54:43;96350.47;;;13.72;91.70
19596;BME280;9945;46.010;8.946;2023-04-24T00:57:10;96350.06;;;13.96;89.72
19596;BME280;9945;46.010;8.946;2023-04-24T00:59:38;96357.72;;;13.70;93.16
19596;BME280;9945;46.010;8.946;2023-04-24T01:02:06;96352.78;;;13.81;92.63
19596;BME280;9945;46.010;8.946;2023-04-24T01:04:34;96354.22;;;13.62;94.43
19596;BME280;9945;46.010;8.946;2023-04-24T01:07:01;96355.50;;;13.67;94.56
19596;BME280;9945;46.010;8.946;2023-04-24T01:09:28;96351.97;;;13.59;94.58
19596;BME280;9945;46.010;8.946;2023-04-24T01:11:56;96349.81;;;13.70;90.51
19596;BME280;9945;46.010;8.946;2023-04-24T01:14:23;96347.47;;;13.75;86.09
19596;BME280;9945;46.010;8.946;2023-04-24T01:16:51;96348.28;;;13.75;79.68
19596;BME280;9945;46.010;8.946;2023-04-24T01:19:18;96341.34;;;13.68;83.83
19596;BME280;9945;46.010;8.946;2023-04-24T01:21:47;96348.53;;;13.59;84.19
19596;BME280;9945;46.010;8.946;2023-04-24T01:24:19;96338.84;;;13.59;83.02
19596;BME280;9945;46.010;8.946;2023-04-24T01:26:46;96342.78;;;13.49;81.69
19596;BME280;9945;46.010;8.946;2023-04-24T01:29:13;96336.44;;;13.64;80.64
19596;BME280;9945;46.010;8.946;2023-04-24T01:31:40;96345.09;;;13.58;79.38
19596;BME280;9945;46.010;8.946;2023-04-24T01:34:07;96347.09;;;13.56;79.84
19596;BME280;9945;46.010;8.946;2023-04-24T01:36:35;96337.19;;;13.58;77.95
19596;BME280;9945;46.010;8.946;2023-04-24T01:39:02;96343.28;;;13.59;78.44
19596;BME280;9945;46.010;8.946;2023-04-24T01:41:30;96329.00;;;13.47;78.65
19596;BME280;9945;46.010;8.946;2023-04-24T01:43:58;96327.47;;;13.38;80.10
19596;BME280;9945;46.010;8.946;2023-04-24T01:46:25;96325.72;;;13.45;79.54
19596;BME280;9945;46.010;8.946;2023-04-24T01:48:52;96332.31;;;13.34;81.14
19596;BME280;9945;46.010;8.946;2023-04-24T01:51:20;96342.41;;;13.52;81.81
19596;BME280;9945;46.010;8.946;2023-04-24T01:53:47;96339.19;;;13.56;88.37
19596;BME280;9945;46.010;8.946;2023-04-24T01:56:14;96333.94;;;13.56;91.59
19596;BME280;9945;46.010;8.946;2023-04-24T01:58:43;96333.19;;;13.41;93.35
19596;BME280;9945;46.010;8.946;2023-04-24T02:01:15;96325.50;;;13.40;93.36
19596;BME280;9945;46.010;8.946;2023-04-24T02:03:42;96317.78;;;13.17;96.27
19596;BME280;9945;46.010;8.946;2023-04-24T02:06:08;96309.38;;;13.28;94.57
19596;BME280;9945;46.010;8.946;2023-04-24T02:08:35;96307.97;;;13.11;94.44
19596;BME280;9945;46.010;8.946;2023-04-24T02:11:02;96312.78;;;13.07;88.51
19596;BME280;9945;46.010;8.946;2023-04-24T02:13:29;96312.88;;;13.14;87.88
19596;BME280;9945;46.010;8.946;2023-04-24T02:15:58;96310.59;;;13.25;85.46
19596;BME280;9945;46.010;8.946;2023-04-24T02:18:24;96313.97;;;13.41;82.19
19596;BME280;9945;46.010;8.946;2023-04-24T02:20:51;96314.16;;;13.39;80.82
19596;BME280;9945;46.010;8.946;2023-04-24T02:23:18;96308.25;;;13.37;81.97
19596;BME280;9945;46.010;8.946;2023-04-24T02:25:45;96311.97;;;13.43;82.95
19596;BME280;9945;46.010;8.946;2023-04-24T02:28:12;96306.44;;;13.38;87.24
19596;BME280;9945;46.010;8.946;2023-04-24T02:30:39;96308.78;;;13.47;87.41
19596;BME280;9945;46.010;8.946;2023-04-24T02:33:08;96308.72;;;13.41;89.23
19596;BME280;9945;46.010;8.946;2023-04-24T02:35:35;96310.66;;;13.32;90.65
19596;BME280;9945;46.010;8.946;2023-04-24T02:38:01;96307.16;;;13.25;90.64
19596;BME280;9945;46.010;8.946;2023-04-24T02:40:28;96294.00;;;13.25;92.46
19596;BME280;9945;46.010;8.946;2023-04-24T02:42:55;96300.25;;;13.24;92.55
19596;BME280;9945;46.010;8.946;2023-04-24T02:45:22;96306.06;;;13.19;93.58
19596;BME280;9945;46.010;8.946;2023-04-24T02:47:49;96302.38;;;13.14;93.98
19596;BME280;9945;46.010;8.946;2023-04-24T02:50:17;96305.00;;;13.14;96.31
19596;BME280;9945;46.010;8.946;2023-04-24T02:52:44;96301.47;;;13.07;95.68
19596;BME280;9945;46.010;8.946;2023-04-24T02:55:11;96296.38;;;13.05;98.37
19596;BME280;9945;46.010;8.946;2023-04-24T02:57:38;96298.13;;;12.98;97.86
19596;BME280;9945;46.010;8.946;2023-04-24T03:00:06;96291.28;;;13.18;96.44
19596;BME280;9945;46.010;8.946;2023-04-24T03:02:34;96290.19;;;13.13;98.06
19596;BME280;9945;46.010;8.946;2023-04-24T03:05:01;96288.81;;;12.96;97.61
19596;BME280;9945;46.010;8.946;2023-04-24T03:07:30;96282.47;;;12.90;98.09
19596;BME280;9945;46.010;8.946;2023-04-24T03:09:57;96284.13;;;12.76;98.52
19596;BME280;9945;46.010;8.946;2023-04-24T03:12:24;96288.59;;;12.76;100.00
19596;BME280;9945;46.010;8.946;2023-04-24T03:14:51;96278.38;;;12.66;100.00
19596;BME280;9945;46.010;8.946;2023-04-24T03:17:18;96279.09;;;12.60;100.00
19596;BME280;9945;46.010;8.946;2023-04-24T03:19:45;96277.38;;;12.67;100.00
19596;BME280;9945;46.010;8.946;2023-04-24T03:22:12;96279.56;;;12.64;100.00
19596;BME280;9945;46.010;8.946;2023-04-24T03:24:40;96265.72;;;12.55;100.00
19596;BME280;9945;46.010;8.946;2023-04-24T03:27:07;96268.88;;;12.50;100.00
19596;BME280;9945;46.010;8.946;2023-04-24T03:29:34;96268.16;;;12.42;100.00
19596;BME280;9945;46.010;8.946;2023-04-24T03:32:01;96262.47;;;12.38;100.00
19596;BME280;9945;46.010;8.946;2023-04-24T03:34:28;96265.75;;;12.40;100.00
19596;BME280;9945;46.010;8.946;2023-04-24T03:36:54;96261.41;;;12.33;100.00
19596;BME280;9945;46.010;8.946;2023-04-24T03:39:21;96254.53;;;12.32;100.00
19596;BME280;9945;46.010;8.946;2023-04-24T03:41:49;96252.00;;;12.24;100.00
19596;BME280;9945;46.010;8.946;2023-04-24T03:44:17;96239.47;;;12.26;100.00
19596;BME280;9945;46.010;8.946;2023-04-24T03:46:43;96238.50;;;12.41;100.00
19596;BME280;9945;46.010;8.946;2023-04-24T03:49:10;96227.06;;;12.34;100.00
19596;BME280;9945;46.010;8.946;2023-04-24T03:51:37;96226.66;;;12.31;100.00
19596;BME280;9945;46.010;8.946;2023-04-24T03:54:04;96224.47;;;12.20;100.00
19596;BME280;9945;46.010;8.946;2023-04-24T03:56:30;96236.59;;;12.21;100.00
19596;BME280;9945;46.010;8.946;2023-04-24T03:58:59;96244.72;;;12.26;100.00
19596;BME280;9945;46.010;8.946;2023-04-24T04:01:25;96243.75;;;12.27;100.00
19596;BME280;9945;46.010;8.946;2023-04-24T04:03:53;96245.22;;;12.15;100.00
19596;BME280;9945;46.010;8.946;2023-04-24T04:06:20;96248.75;;;12.07;100.00
19596;BME280;9945;46.010;8.946;2023-04-24T04:08:48;96254.44;;;12.10;100.00
19596;BME280;9945;46.010;8.946;2023-04-24T04:11:14;96252.19;;;12.07;100.00
19596;BME280;9945;46.010;8.946;2023-04-24T04:13:41;96247.53;;;12.09;100.00
19596;BME280;9945;46.010;8.946;2023-04-24T04:16:10;96260.31;;;11.98;100.00
19596;BME280;9945;46.010;8.946;2023-04-24T04:18:36;96262.66;;;11.93;100.00
19596;BME280;9945;46.010;8.946;2023-04-24T04:21:03;96261.66;;;11.94;100.00
19596;BME280;9945;46.010;8.946;2023-04-24T04:23:30;96253.97;;;11.92;100.00
19596;BME280;9945;46.010;8.946;2023-04-24T04:25:57;96252.25;;;11.99;100.00
19596;BME280;9945;46.010;8.946;2023-04-24T04:28:25;96271.72;;;11.90;100.00
19596;BME280;9945;46.010;8.946;2023-04-24T04:30:52;96281.38;;;11.90;100.00
19596;BME280;9945;46.010;8.946;2023-04-24T04:33:22;96281.00;;;11.78;100.00
19596;BME280;9945;46.010;8.946;2023-04-24T04:35:49;96289.69;;;11.79;100.00
19596;BME280;9945;46.010;8.946;2023-04-24T04:38:17;96285.53;;;11.84;100.00
19596;BME280;9945;46.010;8.946;2023-04-24T04:40:45;96301.91;;;11.86;100.00
19596;BME280;9945;46.010;8.946;2023-04-24T04:43:12;96303.53;;;11.87;100.00
19596;BME280;9945;46.010;8.946;2023-04-24T04:45:40;96300.28;;;12.00;100.00
19596;BME280;9945;46.010;8.946;2023-04-24T04:48:08;96310.69;;;11.93;100.00
19596;BME280;9945;46.010;8.946;2023-04-24T04:50:39;96313.69;;;11.90;100.00
19596;BME280;9945;46.010;8.946;2023-04-24T04:53:06;96321.72;;;11.89;100.00
19596;BME280;9945;46.010;8.946;2023-04-24T04:55:33;96319.09;;;11.89;100.00
19596;BME280;9945;46.010;8.946;2023-04-24T04:58:00;96322.38;;;11.91;100.00
19596;BME280;9945;46.010;8.946;2023-04-24T05:00:27;96325.44;;;11.94;100.00
19596;BME280;9945;46.010;8.946;2023-04-24T05:02:54;96330.84;;;11.93;100.00
19596;BME280;9945;46.010;8.946;2023-04-24T05:05:21;96329.03;;;11.93;100.00
19596;BME280;9945;46.010;8.946;2023-04-24T05:07:49;96324.44;;;11.95;100.00
19596;BME280;9945;46.010;8.946;2023-04-24T05:10:16;96330.03;;;11.92;100.00
19596;BME280;9945;46.010;8.946;2023-04-24T05:12:43;96316.50;;;12.03;100.00
19596;BME280;9945;46.010;8.946;2023-04-24T05:15:10;96317.47;;;12.02;100.00
19596;BME280;9945;46.010;8.946;2023-04-24T05:17:37;96317.03;;;11.99;100.00
19596;BME280;9945;46.010;8.946;2023-04-24T05:20:06;96314.50;;;12.05;100.00
19596;BME280;9945;46.010;8.946;2023-04-24T05:22:33;96317.88;;;12.14;100.00
19596;BME280;9945;46.010;8.946;2023-04-24T05:25:01;96323.47;;;12.11;100.00
19596;BME280;9945;46.010;8.946;2023-04-24T05:27:28;96332.78;;;11.99;100.00
19596;BME280;9945;46.010;8.946;2023-04-24T05:29:55;96329.06;;;12.08;100.00
19596;BME280;9945;46.010;8.946;2023-04-24T05:32:22;96331.81;;;12.15;100.00
19596;BME280;9945;46.010;8.946;2023-04-24T05:34:49;96330.16;;;12.13;100.00
19596;BME280;9945;46.010;8.946;2023-04-24T05:37:15;96341.19;;;12.09;100.00
19596;BME280;9945;46.010;8.946;2023-04-24T05:39:42;96339.66;;;12.15;100.00
19596;BME280;9945;46.010;8.946;2023-04-24T05:42:10;96340.56;;;12.22;100.00
19596;BME280;9945;46.010;8.946;2023-04-24T05:44:37;96338.69;;;12.30;100.00
19596;BME280;9945;46.010;8.946;2023-04-24T05:47:04;96335.63;;;12.41;100.00
19596;BME280;9945;46.010;8.946;2023-04-24T05:49:31;96343.19;;;12.51;100.00
19596;BME280;9945;46.010;8.946;2023-04-24T05:51:58;96342.84;;;12.69;100.00
19596;BME280;9945;46.010;8.946;2023-04-24T05:54:25;96342.56;;;12.78;100.00
19596;BME280;9945;46.010;8.946;2023-04-24T05:56:52;96348.53;;;12.72;100.00
19596;BME280;9945;46.010;8.946;2023-04-24T05:59:21;96350.81;;;12.61;100.00
19596;BME280;9945;46.010;8.946;2023-04-24T06:01:48;96353.91;;;12.64;100.00
19596;BME280;9945;46.010;8.946;2023-04-24T06:04:15;96349.63;;;12.93;100.00
19596;BME280;9945;46.010;8.946;2023-04-24T06:06:42;96357.69;;;12.91;100.00
19596;BME280;9945;46.010;8.946;2023-04-24T06:09:08;96356.38;;;13.02;100.00
19596;BME280;9945;46.010;8.946;2023-04-24T06:11:35;96346.06;;;13.00;100.00
19596;BME280;9945;46.010;8.946;2023-04-24T06:14:02;96347.19;;;13.12;100.00
19596;BME280;9945;46.010;8.946;2023-04-24T06:16:31;96353.53;;;13.33;100.00
19596;BME280;9945;46.010;8.946;2023-04-24T06:18:58;96349.91;;;13.55;100.00
19596;BME280;9945;46.010;8.946;2023-04-24T06:21:24;96353.97;;;13.57;100.00
19596;BME280;9945;46.010;8.946;2023-04-24T06:23:51;96361.81;;;13.72;100.00
19596;BME280;9945;46.010;8.946;2023-04-24T06:26:18;96362.03;;;13.98;100.00
19596;BME280;9945;46.010;8.946;2023-04-24T06:28:45;96363.97;;;14.11;100.00
19596;BME280;9945;46.010;8.946;2023-04-24T06:31:12;96364.88;;;14.25;99.35
19596;BME280;9945;46.010;8.946;2023-04-24T06:33:40;96368.16;;;14.33;95.33
19596;BME280;9945;46.010;8.946;2023-04-24T06:36:07;96362.41;;;14.45;90.63
19596;BME280;9945;46.010;8.946;2023-04-24T06:38:34;96357.00;;;14.53;89.08
19596;BME280;9945;46.010;8.946;2023-04-24T06:41:01;96353.41;;;14.67;88.42
19596;BME280;9945;46.010;8.946;2023-04-24T06:43:28;96359.53;;;14.74;88.44
19596;BME280;9945;46.010;8.946;2023-04-24T06:45:56;96360.19;;;14.89;86.94
19596;BME280;9945;46.010;8.946;2023-04-24T06:48:23;96351.75;;;15.07;86.16
19596;BME280;9945;46.010;8.946;2023-04-24T06:50:52;96362.38;;;15.20;85.02
19596;BME280;9945;46.010;8.946;2023-04-24T06:53:18;96361.78;;;15.31;84.41
19596;BME280;9945;46.010;8.946;2023-04-24T06:55:45;96365.47;;;15.37;82.84
19596;BME280;9945;46.010;8.946;2023-04-24T06:58:12;96373.59;;;15.42;81.29
19596;BME280;9945;46.010;8.946;2023-04-24T07:00:40;96366.47;;;15.29;80.61
19596;BME280;9945;46.010;8.946;2023-04-24T07:03:07;96361.41;;;15.41;80.35
19596;BME280;9945;46.010;8.946;2023-04-24T07:05:34;96363.13;;;15.68;80.96
19596;BME280;9945;46.010;8.946;2023-04-24T07:08:04;96366.19;;;15.72;79.63
19596;BME280;9945;46.010;8.946;2023-04-24T07:10:32;96363.78;;;15.90;78.29
19596;BME280;9945;46.010;8.946;2023-04-24T07:13:01;96368.03;;;16.17;76.59
19596;BME280;9945;46.010;8.946;2023-04-24T07:15:27;96371.06;;;16.34;75.18
19596;BME280;9945;46.010;8.946;2023-04-24T07:17:54;96366.59;;;16.48;71.89
19596;BME280;9945;46.010;8.946;2023-04-24T07:20:21;96365.97;;;16.66;72.43
19596;BME280;9945;46.010;8.946;2023-04-24T07:22:48;96364.75;;;16.55;71.03
19596;BME280;9945;46.010;8.946;2023-04-24T07:25:18;96362.72;;;16.57;69.42
19596;BME280;9945;46.010;8.946;2023-04-24T07:27:45;96366.56;;;16.68;68.41
19596;BME280;9945;46.010;8.946;2023-04-24T07:30:12;96363.47;;;16.90;69.00
19596;BME280;9945;46.010;8.946;2023-04-24T07:32:39;96362.66;;;16.90;67.21
19596;BME280;9945;46.010;8.946;2023-04-24T07:35:06;96366.09;;;16.90;65.63
19596;BME280;9945;46.010;8.946;2023-04-24T07:37:35;96359.34;;;17.08;64.88
19596;BME280;9945;46.010;8.946;2023-04-24T07:40:02;96349.91;;;17.18;65.67
19596;BME280;9945;46.010;8.946;2023-04-24T07:42:30;96352.47;;;17.38;69.05
19596;BME280;9945;46.010;8.946;2023-04-24T07:44:59;96357.06;;;17.56;68.59
19596;BME280;9945;46.010;8.946;2023-04-24T07:47:26;96356.63;;;17.59;69.83
19596;BME280;9945;46.010;8.946;2023-04-24T07:49:53;96349.22;;;17.74;67.10
19596;BME280;9945;46.010;8.946;2023-04-24T07:52:20;96345.81;;;17.67;67.07
19596;BME280;9945;46.010;8.946;2023-04-24T07:54:47;96345.50;;;17.82;67.36
19596;BME280;9945;46.010;8.946;2023-04-24T07:57:15;96348.72;;;17.90;65.64
19596;BME280;9945;46.010;8.946;2023-04-24T07:59:43;96347.09;;;18.14;67.21
19596;BME280;9945;46.010;8.946;2023-04-24T08:02:10;96347.91;;;18.14;64.53
19596;BME280;9945;46.010;8.946;2023-04-24T08:04:37;96347.81;;;18.28;64.95
19596;BME280;9945;46.010;8.946;2023-04-24T08:07:04;96349.56;;;18.34;63.44
19596;BME280;9945;46.010;8.946;2023-04-24T08:09:31;96351.19;;;18.35;63.44
19596;BME280;9945;46.010;8.946;2023-04-24T08:11:57;96352.22;;;18.34;61.84
19596;BME280;9945;46.010;8.946;2023-04-24T08:14:25;96349.44;;;18.29;62.46
19596;BME280;9945;46.010;8.946;2023-04-24T08:16:54;96344.81;;;18.42;62.97
19596;BME280;9945;46.010;8.946;2023-04-24T08:19:21;96342.09;;;18.49;62.16
19596;BME280;9945;46.010;8.946;2023-04-24T08:21:48;96339.63;;;18.72;62.03
19596;BME280;9945;46.010;8.946;2023-04-24T08:24:15;96348.03;;;18.69;60.35
19596;BME280;9945;46.010;8.946;2023-04-24T08:26:42;96352.44;;;18.75;61.32
19596;BME280;9945;46.010;8.946;2023-04-24T08:29:09;96340.13;;;18.81;61.38
19596;BME280;9945;46.010;8.946;2023-04-24T08:31:36;96348.00;;;19.06;61.96
19596;BME280;9945;46.010;8.946;2023-04-24T08:34:04;96340.72;;;19.19;59.75
19596;BME280;9945;46.010;8.946;2023-04-24T08:36:31;96346.81;;;19.38;57.83
19596;BME280;9945;46.010;8.946;2023-04-24T08:38:59;96351.19;;;19.62;56.79
19596;BME280;9945;46.010;8.946;2023-04-24T08:41:26;96338.91;;;19.80;55.13
19596;BME280;9945;46.010;8.946;2023-04-24T08:43:54;96344.84;;;20.05;53.98
19596;BME280;9945;46.010;8.946;2023-04-24T08:46:24;96341.50;;;20.21;52.52
19596;BME280;9945;46.010;8.946;2023-04-24T08:48:52;96341.25;;;20.11;52.97
19596;BME280;9945;46.010;8.946;2023-04-24T08:51:20;96345.44;;;20.07;51.80
19596;BME280;9945;46.010;8.946;2023-04-24T08:53:48;96341.00;;;20.01;52.73
19596;BME280;9945;46.010;8.946;2023-04-24T08:56:15;96351.41;;;20.02;51.27
19596;BME280;9945;46.010;8.946;2023-04-24T08:58:43;96345.31;;;19.60;50.64
19596;BME280;9945;46.010;8.946;2023-04-24T09:01:11;96346.13;;;20.14;49.21
19596;BME280;9945;46.010;8.946;2023-04-24T09:03:39;96346.22;;;21.01;45.38
19596;BME280;9945;46.010;8.946;2023-04-24T09:06:08;96346.34;;;22.03;42.29
19596;BME280;9945;46.010;8.946;2023-04-24T09:08:38;96342.09;;;23.61;39.18
19596;BME280;9945;46.010;8.946;2023-04-24T09:11:07;96336.97;;;24.87;37.53
19596;BME280;9945;46.010;8.946;2023-04-24T09:13:35;96340.88;;;26.19;33.89
19596;BME280;9945;46.010;8.946;2023-04-24T09:16:02;96341.81;;;28.23;30.55
19596;BME280;9945;46.010;8.946;2023-04-24T09:18:28;96344.09;;;30.20;28.37
19596;BME280;9945;46.010;8.946;2023-04-24T09:21:00;96342.59;;;31.75;25.71
19596;BME280;9945;46.010;8.946;2023-04-24T09:23:28;96338.78;;;33.18;24.05
19596;BME280;9945;46.010;8.946;2023-04-24T09:25:57;96351.22;;;34.88;22.90
19596;BME280;9945;46.010;8.946;2023-04-24T09:28:30;96343.69;;;37.10;21.35
19596;BME280;9945;46.010;8.946;2023-04-24T09:31:08;96349.50;;;37.94;19.57
19596;BME280;9945;46.010;8.946;2023-04-24T09:33:36;96346.47;;;39.89;17.94
19596;BME280;9945;46.010;8.946;2023-04-24T09:36:03;96338.38;;;40.73;16.99
19596;BME280;9945;46.010;8.946;2023-04-24T09:38:32;96342.97;;;42.13;16.18
19596;BME280;9945;46.010;8.946;2023-04-24T09:41:02;96336.78;;;43.30;15.49
19596;BME280;9945;46.010;8.946;2023-04-24T09:43:30;96344.06;;;43.53;15.02
19596;BME280;9945;46.010;8.946;2023-04-24T09:45:58;96345.47;;;44.63;14.34
19596;BME280;9945;46.010;8.946;2023-04-24T09:48:33;96331.31;;;45.04;13.92
19596;BME280;9945;46.010;8.946;2023-04-24T09:51:01;96329.28;;;46.07;12.97
19596;BME280;9945;46.010;8.946;2023-04-24T09:53:29;96344.28;;;47.00;12.39
19596;BME280;9945;46.010;8.946;2023-04-24T09:56:06;96336.09;;;47.31;12.36
19596;BME280;9945;46.010;8.946;2023-04-24T09:58:34;96345.19;;;46.83;12.39
19596;BME280;9945;46.010;8.946;2023-04-24T10:01:02;96340.09;;;47.30;11.91
19596;BME280;9945;46.010;8.946;2023-04-24T10:03:30;96345.31;;;47.72;11.69
19596;BME280;9945;46.010;8.946;2023-04-24T10:05:58;96347.69;;;48.45;11.45
19596;BME280;9945;46.010;8.946;2023-04-24T10:08:25;96341.88;;;48.63;11.04
19596;BME280;9945;46.010;8.946;2023-04-24T10:10:53;96338.34;;;48.29;11.22
19596;BME280;9945;46.010;8.946;2023-04-24T10:13:21;96343.19;;;49.12;11.39
19596;BME280;9945;46.010;8.946;2023-04-24T10:15:49;96335.66;;;48.52;10.87
19596;BME280;9945;46.010;8.946;2023-04-24T10:18:16;96329.72;;;47.82;11.45
19596;BME280;9945;46.010;8.946;2023-04-24T10:20:44;96338.13;;;47.27;11.16
19596;BME280;9945;46.010;8.946;2023-04-24T10:23:11;96332.41;;;44.57;12.36
19596;BME280;9945;46.010;8.946;2023-04-24T10:26:25;96324.34;;;42.03;14.13
19596;BME280;9945;46.010;8.946;2023-04-24T10:28:53;96319.75;;;41.54;13.89
19596;BME280;9945;46.010;8.946;2023-04-24T10:31:21;96315.22;;;42.99;13.30
19596;BME280;9945;46.010;8.946;2023-04-24T10:33:49;96322.09;;;44.43;12.72
19596;BME280;9945;46.010;8.946;2023-04-24T10:36:18;96320.22;;;42.49;13.69
19596;BME280;9945;46.010;8.946;2023-04-24T10:38:49;96313.19;;;39.75;15.24
19596;BME280;9945;46.010;8.946;2023-04-24T10:41:18;96303.38;;;36.17;18.33
19596;BME280;9945;46.010;8.946;2023-04-24T10:44:04;96303.19;;;33.20;20.21
19596;BME280;9945;46.010;8.946;2023-04-24T10:46:31;96292.38;;;31.91;21.71
19596;BME280;9945;46.010;8.946;2023-04-24T10:48:58;96300.13;;;30.66;23.07
19596;BME280;9945;46.010;8.946;2023-04-24T10:51:44;96296.56;;;29.68;24.39
19596;BME280;9945;46.010;8.946;2023-04-24T10:54:22;96295.31;;;28.94;24.45
19596;BME280;9945;46.010;8.946;2023-04-24T10:56:49;96303.22;;;28.85;26.32
19596;BME280;9945;46.010;8.946;2023-04-24T10:59:25;96303.13;;;33.02;21.93
19596;BME280;9945;46.010;8.946;2023-04-24T11:01:53;96300.78;;;35.99;18.77
19596;BME280;9945;46.010;8.946;2023-04-24T11:04:29;96311.06;;;39.02;16.50
19596;BME280;9945;46.010;8.946;2023-04-24T11:06:57;96309.41;;;42.00;14.92
19596;BME280;9945;46.010;8.946;2023-04-24T11:09:26;96312.38;;;42.18;14.57
19596;BME280;9945;46.010;8.946;2023-04-24T11:12:03;96307.63;;;40.44;14.99
19596;BME280;9945;46.010;8.946;2023-04-24T11:15:01;96308.34;;;39.68;15.44
19596;BME280;9945;46.010;8.946;2023-04-24T11:17:32;96304.88;;;40.67;14.96
19596;BME280;9945;46.010;8.946;2023-04-24T11:20:02;96314.75;;;39.41;15.90
19596;BME280;9945;46.010;8.946;2023-04-24T11:22:33;96297.72;;;37.00;16.73
19596;BME280;9945;46.010;8.946;2023-04-24T11:25:02;96292.75;;;35.82;17.92
19596;BME280;9945;46.010;8.946;2023-04-24T11:27:30;96292.28;;;34.37;18.95
19596;BME280;9945;46.010;8.946;2023-04-24T11:30:03;96288.63;;;33.07;19.64
19596;BME280;9945;46.010;8.946;2023-04-24T11:32:33;96281.03;;;36.02;18.09
19596;BME280;9945;46.010;8.946;2023-04-24T11:35:02;96288.06;;;39.22;15.39
19596;BME280;9945;46.010;8.946;2023-04-24T11:37:34;96291.84;;;39.49;15.01
19596;BME280;9945;46.010;8.946;2023-04-24T11:40:02;96276.31;;;37.26;16.38
19596;BME280;9945;46.010;8.946;2023-04-24T11:42:33;96273.38;;;35.34;18.31
19596;BME280;9945;46.010;8.946;2023-04-24T11:45:07;96272.41;;;34.53;19.36
19596;BME280;9945;46.010;8.946;2023-04-24T11:47:35;96273.03;;;32.51;21.47
19596;BME280;9945;46.010;8.946;2023-04-24T11:50:04;96270.47;;;30.88;22.47
19596;BME280;9945;46.010;8.946;2023-04-24T11:52:31;96262.97;;;29.55;24.08
19596;BME280;9945;46.010;8.946;2023-04-24T11:54:59;96270.41;;;29.02;23.76
19596;BME280;9945;46.010;8.946;2023-04-24T11:57:26;96259.25;;;28.37;25.37
19596;BME280;9945;46.010;8.946;2023-04-24T11:59:58;96262.75;;;28.04;26.03
19596;BME280;9945;46.010;8.946;2023-04-24T12:02:27;96257.97;;;27.62;26.44
19596;BME280;9945;46.010;8.946;2023-04-24T12:04:54;96262.41;;;27.37;25.85
19596;BME280;9945;46.010;8.946;2023-04-24T12:07:22;96258.47;;;27.15;27.52
19596;BME280;9945;46.010;8.946;2023-04-24T12:09:55;96259.56;;;27.19;27.53
19596;BME280;9945;46.010;8.946;2023-04-24T12:12:25;96264.25;;;27.42;26.83
19596;BME280;9945;46.010;8.946;2023-04-24T12:14:53;96251.63;;;26.83;27.82
19596;BME280;9945;46.010;8.946;2023-04-24T12:17:26;96249.00;;;26.63;27.64
19596;BME280;9945;46.010;8.946;2023-04-24T12:19:57;96253.56;;;26.57;27.60
19596;BME280;9945;46.010;8.946;2023-04-24T12:22:25;96252.44;;;26.79;28.33
19596;BME280;9945;46.010;8.946;2023-04-24T12:24:56;96244.91;;;26.81;27.71
19596;BME280;9945;46.010;8.946;2023-04-24T12:27:23;96251.16;;;26.61;28.66
19596;BME280;9945;46.010;8.946;2023-04-24T12:29:55;96248.69;;;26.74;28.27
19596;BME280;9945;46.010;8.946;2023-04-24T12:32:22;96241.22;;;26.61;28.58
19596;BME280;9945;46.010;8.946;2023-04-24T12:34:52;96242.56;;;26.59;28.30
19596;BME280;9945;46.010;8.946;2023-04-24T12:37:19;96244.13;;;26.75;27.98
19596;BME280;9945;46.010;8.946;2023-04-24T12:40:02;96239.75;;;27.04;29.43
19596;BME280;9945;46.010;8.946;2023-04-24T12:42:31;96235.44;;;26.98;28.53
19596;BME280;9945;46.010;8.946;2023-04-24T12:44:59;96241.03;;;27.07;26.69
19596;BME280;9945;46.010;8.946;2023-04-24T12:47:27;96227.84;;;27.16;24.37
19596;BME280;9945;46.010;8.946;2023-04-24T12:49:55;96230.97;;;27.33;23.36
19596;BME280;9945;46.010;8.946;2023-04-24T12:52:22;96231.16;;;27.02;24.61
19596;BME280;9945;46.010;8.946;2023-04-24T12:54:52;96232.13;;;27.22;27.39
19596;BME280;9945;46.010;8.946;2023-04-24T12:57:19;96226.25;;;27.09;26.05
19596;BME280;9945;46.010;8.946;2023-04-24T12:59:46;96224.13;;;27.06;25.82
19596;BME280;9945;46.010;8.946;2023-04-24T13:02:13;96224.63;;;27.14;23.42
19596;BME280;9945;46.010;8.946;2023-04-24T13:04:43;96218.00;;;26.96;22.52
19596;BME280;9945;46.010;8.946;2023-04-24T13:07:12;96210.03;;;27.25;26.75
19596;BME280;9945;46.010;8.946;2023-04-24T13:09:39;96213.19;;;26.93;27.71
19596;BME280;9945;46.010;8.946;2023-04-24T13:12:06;96211.03;;;26.95;27.10